Hlavní strana
METAR-TAF:

METAR-TAF

Letiště :

Örebro, Švédsko

zeměpisná šířka: 59-14N, zeměpisná délka: 015-03E, výška: 57 m

Aktuální stav počasí

Zpráva byla vytvořena před 22 minutami, v 13:50 UTC
Jihojihozápadní vítr 6 kt
Teplota 11°C
Vlhkost vzduchu 76%
Tlak 1022 hPa
Viditelnost 10 km a více
Žádná oblačnost pod 1500 m, nevyskytují se cumulonimby.

METAR: ESOE 191350Z 21006KT CAVOK 11/07 Q1022

Čas: 16:12 (14:12 UTC)

Předpověď počasí

Zpráva byla vytvořena před 2 hodinami a 42 minutami, v 11:30 UTC
Předpověď platná od 19 v 12 UTC do 19 v 20 UTC
Jihozápadní vítr 5 kt
Viditelnost 10 km a více
Žádná oblačnost pod 1500 m, nevyskytují se cumulonimby.
Změna
od 19 v 15 UTC do 19 v 17 UTC
Oblačno až skoro zataženo ve výšce 300 ft
Pravděpodobnost 40%
od 19 v 18 UTC do 19 v 20 UTC
Viditelnost: 0500 m
mlha

TAF: ESOE 191130Z 1912/1920 22005KT CAVOK BECMG 1915/1917 BKN003 PROB40 1918/1920 0500 FG

Stav a předpovědi počasí z více než 4 000 letišť (zprávy METAR a TAF).

Červené a žluté tečky na mapě představují dostupné meteorologické stanice.

Když kurzor umístíte na tečku, zobrazí se název stanice.

Pak kliknutím zobrazíte stav a předpověď počasí.

Chcete-li změnit mapu, kliknutím na zelené tlačítko se znaménkem +mapu přiblížíte, kliknutím na zelené tlačítko se znaménkem – mapu oddálíte a kliknutím na zelené šipky přejdete na sousední mapy.


METAR-TAF: